Rotterdam — PDGS — position and weather

sailwx.info

Track history (hours):
 
Tides and Currents Weather Stations Pressure Air Temp Water Temp Dewpoint Dewpoint Depression Visibility Wind Speed Wind Dir Waves Ship Positions

Rotterdam

Operator: Holland America Line

Last reported at 2017-Aug-22 21:30 UTC. Time now 2017-Aug-22 22:30 UTC.
Position N 52°35' W 005°39'.

Length 228 m; beam 29 m.

Type: Ship. MMSI: 24616700.

Date/timePositionNaut miles runAvg speedWind from/ knotsBaromVisibWave heightAir tempDewpointWater temp
2017-Aug-22 21:30N 52°35' W 005°39'1019.7
2017-Aug-22 21:00N 52°25' W 005°41'1120.0
2017-Aug-22 20:27N 52°14' W 005°42'2820.8
2017-Aug-22 19:05N 51°46' W 005°49'620.0
2017-Aug-22 18:48N 51°41' W 005°52'5919.6
2017-Aug-22 15:47N 50°42' W 005°51'621.8
2017-Aug-22 15:30N 50°36' W 005°50'2122.0
2017-Aug-22 14:34N 50°15' W 005°52'423.1
2017-Aug-22 14:24N 50°11' W 005°52'1123.1
2017-Aug-22 13:56N 50°00' W 005°53'2920.0
2017-Aug-22 12:29N 49°51' W 005°10'1222.1
2017-Aug-22 11:57N 49°50' W 004°52'1022.5
2017-Aug-22 11:31N 49°51' W 004°37'1622.5
2017-Aug-22 10:49N 49°53' W 004°13'722.3
2017-Aug-22 10:30N 49°53' W 004°02'1121.6
2017-Aug-22 10:00N 49°55' W 003°46'1121.1
2017-Aug-22 09:30N 49°56' W 003°30'1020.5
2017-Aug-22 09:00N 49°58' W 003°14'1019.7
2017-Aug-22 08:30N 50°00' W 002°59'1019.1
2017-Aug-22 08:00N 50°03' W 002°45'1018.5
2017-Aug-22 07:28N 50°05' W 002°30'818.3
2017-Aug-22 07:00N 50°07' W 002°17'918.4
2017-Aug-22 06:30N 50°10' W 002°03'1019.1
2017-Aug-22 06:00N 50°12' W 001°48'1020.0
2017-Aug-22 05:31N 50°14' W 001°33'1121.2
2017-Aug-22 05:01N 50°17' W 001°17'1122.5
2017-Aug-22 04:30N 50°20' W 001°00'1723.4
2017-Aug-22 03:48N 50°25' W 000°35'823.3
2017-Aug-22 03:27N 50°27' W 000°23'1022.9
2017-Aug-22 03:00N 50°30' W 000°07'1122.7
2017-Aug-22 02:30N 50°33' E 000°09'1122.4
2017-Aug-22 02:00N 50°37' E 000°26'1121.4
2017-Aug-22 01:30N 50°41' E 000°42'1020.8
2017-Aug-22 01:00N 50°47' E 000°55'1419.5
2017-Aug-22 00:19N 50°56' E 001°12'618.3
2017-Aug-22 00:00N 50°59' E 001°18'815.0
2017-Aug-21 23:30N 51°04' E 001°28'815.1
2017-Aug-21 23:00N 51°08' E 001°37'815.7
2017-Aug-21 22:30N 51°14' E 001°47'917.1
2017-Aug-21 22:00N 51°21' E 001°53'918.7
2017-Aug-21 21:30N 51°29' E 002°01'916.7
2017-Aug-21 20:58N 51°36' E 002°11'6617.7
2017-Aug-21 17:15N 52°04' E 003°47'2 9.7
2017-Aug-21 17:00N 52°04' E 003°50'612.4
2017-Aug-21 16:30N 52°01' E 003°59'713.4
2017-Aug-21 16:00N 51°58' E 004°09'511.0
2017-Aug-21 15:31N 51°54' E 004°16'831.1
2017-Aug-21 15:15N 51°54' E 004°29'416.4
2017-Aug-21 15:01N 51°54' E 004°23'4329.8
2017-Aug-21 15:00N 51°54' E 004°29'0 0.6
2017-Aug-21 14:31N 51°54' E 004°29'023.4
2017-Aug-21 14:30N 51°54' E 004°29'0 0.0
2017-Aug-21 14:00N 51°54' E 004°29'0 7.3
2017-Aug-21 14:00N 51°54' E 004°29'0 0.0
2017-Aug-21 13:30N 51°54' E 004°29'0 0.2
2017-Aug-21 13:30N 51°54' E 004°29'0 0.0
2017-Aug-21 13:00N 51°54' E 004°29'0 0.1
2017-Aug-21 13:00N 51°54' E 004°29'0 0.0
2017-Aug-21 12:30N 51°54' E 004°29'0 0.4
2017-Aug-21 12:30N 51°54' E 004°29'0 0.0
2017-Aug-21 12:00N 51°54' E 004°29'0 0.3
2017-Aug-21 12:00N 51°54' E 004°29'0 0.0
2017-Aug-21 11:30N 51°54' E 004°29'0 0.8
2017-Aug-21 11:30N 51°54' E 004°29'0 0.0
2017-Aug-21 11:00N 51°54' E 004°29'0 0.1
2017-Aug-21 11:00N 51°54' E 004°29'0 0.0
2017-Aug-21 10:30N 51°54' E 004°29'0 0.2
2017-Aug-21 10:30N 51°54' E 004°29'0 0.0
2017-Aug-21 10:00N 51°54' E 004°29'0 1.5
2017-Aug-21 10:00N 51°54' E 004°29'0 0.0
2017-Aug-21 09:30N 51°54' E 004°29'0 0.1
2017-Aug-21 09:30N 51°54' E 004°29'0 0.0
2017-Aug-21 09:00N 51°54' E 004°29'0 0.1
2017-Aug-21 09:00N 51°54' E 004°29'0 0.0
2017-Aug-21 08:30N 51°54' E 004°29'0 2.4
2017-Aug-21 08:30N 51°54' E 004°29'0 0.1
2017-Aug-21 08:00N 51°54' E 004°29'0 0.2
2017-Aug-21 08:00N 51°54' E 004°29'0 0.0
2017-Aug-21 07:30N 51°54' E 004°29'0 0.1
2017-Aug-21 07:30N 51°54' E 004°29'0 0.0
2017-Aug-21 07:00N 51°54' E 004°29'0 0.7
2017-Aug-21 07:00N 51°54' E 004°29'0 0.0
2017-Aug-21 06:30N 51°54' E 004°29'0 0.0
2017-Aug-21 06:30N 51°54' E 004°29'0 0.0
2017-Aug-21 06:00N 51°54' E 004°29'0 0.1
2017-Aug-21 06:00N 51°54' E 004°29'0 0.0
2017-Aug-21 05:30N 51°54' E 004°29'0 0.2
2017-Aug-21 05:29N 51°54' E 004°29'0 0.0
2017-Aug-21 05:00N 51°54' E 004°29'0 0.1
2017-Aug-21 05:00N 51°54' E 004°29'0 0.0
2017-Aug-21 04:30N 51°54' E 004°29'0 0.6
2017-Aug-21 04:30N 51°54' E 004°29'0 0.0
2017-Aug-21 04:00N 51°54' E 004°29'0 0.7
2017-Aug-21 04:00N 51°54' E 004°29'0 0.0
2017-Aug-21 03:30N 51°54' E 004°29'0 0.0
2017-Aug-21 03:00N 51°54' E 004°29'0 0.1
2017-Aug-21 02:59N 51°54' E 004°29'0 0.0
2017-Aug-21 02:30N 51°54' E 004°29'0 0.0
2017-Aug-21 02:30N 51°54' E 004°29'0 0.0
2017-Aug-21 02:00N 51°54' E 004°29'0 0.0
2017-Aug-21 02:00N 51°54' E 004°29'0 0.0
2017-Aug-21 01:30N 51°54' E 004°29'0 0.0
2017-Aug-21 01:30N 51°54' E 004°29'0 0.1
2017-Aug-21 01:00N 51°54' E 004°29'0 2.8
2017-Aug-21 01:00N 51°54' E 004°29'0 0.1
2017-Aug-21 00:30N 51°54' E 004°29'0 0.0
2017-Aug-21 00:30N 51°54' E 004°29'0 0.0
2017-Aug-21 00:00N 51°54' E 004°29'0 0.2
2017-Aug-21 00:00N 51°54' E 004°29'0 0.0
2017-Aug-20 23:30N 51°54' E 004°29'0 0.8
2017-Aug-20 23:30N 51°54' E 004°29'0 0.0
2017-Aug-20 23:00N 51°54' E 004°29'0 0.7
2017-Aug-20 23:00N 51°54' E 004°29'0 0.0
2017-Aug-20 22:30N 51°54' E 004°29'0 0.8
2017-Aug-20 22:30N 51°54' E 004°29'0 0.1
2017-Aug-20 22:00N 51°54' E 004°29'0 4.0
2017-Aug-20 22:00N 51°54' E 004°29'0 0.0
2017-Aug-20 21:30N 51°54' E 004°29'0 1.0
2017-Aug-20 21:30N 51°54' E 004°29'0 0.0
2017-Aug-20 21:00N 51°54' E 004°29'0 0.1
2017-Aug-20 21:00N 51°54' E 004°29'0 0.0
2017-Aug-20 20:30N 51°54' E 004°29'0 0.7
2017-Aug-20 20:30N 51°54' E 004°29'0 0.0
2017-Aug-20 20:00N 51°54' E 004°29'0 0.1
2017-Aug-20 20:00N 51°54' E 004°29'0 0.0
2017-Aug-20 19:30N 51°54' E 004°29'0 0.2
2017-Aug-20 19:30N 51°54' E 004°29'0 0.0
2017-Aug-20 19:00N 51°54' E 004°29'0 0.1
2017-Aug-20 19:00N 51°54' E 004°29'0 0.0
2017-Aug-20 18:30N 51°54' E 004°29'0 0.1
2017-Aug-20 18:30N 51°54' E 004°29'0 0.0
2017-Aug-20 18:00N 51°54' E 004°29'0 0.2
2017-Aug-20 18:00N 51°54' E 004°29'0 0.0
2017-Aug-20 17:30N 51°54' E 004°29'0 0.0
2017-Aug-20 17:30N 51°54' E 004°29'0 0.0
2017-Aug-20 17:00N 51°54' E 004°29'0 0.2
2017-Aug-20 17:00N 51°54' E 004°29'0 0.0
2017-Aug-20 16:30N 51°54' E 004°29'0 0.1
2017-Aug-20 16:29N 51°54' E 004°29'0 0.0
2017-Aug-20 16:00N 51°54' E 004°29'0 0.2
2017-Aug-20 16:00N 51°54' E 004°29'0 0.0
2017-Aug-20 15:30N 51°54' E 004°29'0 0.4
2017-Aug-20 15:30N 51°54' E 004°29'0 0.0
2017-Aug-20 15:00N 51°54' E 004°29'0 0.0
2017-Aug-20 15:00N 51°54' E 004°29'0 0.0
2017-Aug-20 14:30N 51°54' E 004°29'0 0.1
2017-Aug-20 14:30N 51°54' E 004°29'0 0.0
2017-Aug-20 14:00N 51°54' E 004°29'0 0.2
2017-Aug-20 14:00N 51°54' E 004°29'0 0.0
2017-Aug-20 13:30N 51°54' E 004°29'0 0.0
2017-Aug-20 13:30N 51°54' E 004°29'0 0.0
2017-Aug-20 13:00N 51°54' E 004°29'0 0.7
2017-Aug-20 13:00N 51°54' E 004°29'0 0.1
2017-Aug-20 12:30N 51°54' E 004°29'0 2.8
2017-Aug-20 12:30N 51°54' E 004°29'0 0.0
2017-Aug-20 12:00N 51°54' E 004°29'0 0.5
2017-Aug-20 12:00N 51°54' E 004°29'0 0.0
2017-Aug-20 11:30N 51°54' E 004°29'0 0.2
2017-Aug-20 11:30N 51°54' E 004°29'0 0.0
2017-Aug-20 11:00N 51°54' E 004°29'0 0.2
2017-Aug-20 11:00N 51°54' E 004°29'0 0.0
2017-Aug-20 10:30N 51°54' E 004°29'0 0.7
2017-Aug-20 10:30N 51°54' E 004°29'0 0.0
2017-Aug-20 10:00N 51°54' E 004°29'0 0.4
2017-Aug-20 10:00N 51°54' E 004°29'0 0.0
2017-Aug-20 09:30N 51°54' E 004°29'0 0.2
2017-Aug-20 09:30N 51°54' E 004°29'0 0.0
2017-Aug-20 09:00N 51°54' E 004°29'0 0.1
2017-Aug-20 09:00N 51°54' E 004°29'0 0.0
2017-Aug-20 08:30N 51°54' E 004°29'0 3.0
2017-Aug-20 08:30N 51°54' E 004°29'0 0.0
2017-Aug-20 08:00N 51°54' E 004°29'0 0.0
2017-Aug-20 08:00N 51°54' E 004°29'0 0.0
2017-Aug-20 07:30N 51°54' E 004°29'0 0.0
2017-Aug-20 07:30N 51°54' E 004°29'0 0.0
2017-Aug-20 07:00N 51°54' E 004°29'0 0.2
2017-Aug-20 07:00N 51°54' E 004°29'0 0.0
2017-Aug-20 06:30N 51°54' E 004°29'0 0.0
2017-Aug-20 06:00N 51°54' E 004°29'0 0.0
2017-Aug-20 05:30N 51°54' E 004°29'0 0.0
2017-Aug-20 05:00N 51°54' E 004°29'0 0.2
2017-Aug-20 04:30N 51°54' E 004°29'2 4.5
2017-Aug-20 04:01N 51°54' E 004°25'4 7.5
2017-Aug-20 03:31N 51°54' E 004°19'510.7
2017-Aug-20 03:00N 51°56' E 004°12'612.7
2017-Aug-20 02:31N 51°59' E 004°03'815.6
2017-Aug-20 02:01N 52°01' E 003°51'611.2
2017-Aug-20 01:31N 52°06' E 003°46'816.6
2017-Aug-20 01:01N 52°15' E 003°46'816.2
2017-Aug-20 00:30N 52°23' E 003°48'815.9
2017-Aug-20 00:00N 52°30' E 003°51'815.6
2017-Aug-19 23:30N 52°38' E 003°53'815.3
2017-Aug-19 23:01N 52°45' E 003°56'816.2
2017-Aug-19 22:30N 52°54' E 003°59'815.9
2017-Aug-19 22:00N 53°00' E 004°06'916.9
2017-Aug-19 21:30N 53°06' E 004°17'6518.7
2017-Aug-19 18:00N 54°06' E 005°00'6616.0 270 / 251011.910.8 16.5 9.219.0
2017-Aug-19 13:54N 55°10' E 005°22'716.8
2017-Aug-19 13:29N 55°17' E 005°25'1912.8
2017-Aug-19 12:00N 55°36' E 005°30'16017.3 250 / 341004.1 5.4 15.510.718.0
2017-Aug-19 02:46N 58°16' E 005°09'416.9
2017-Aug-19 02:30N 58°20' E 005°09'816.6
2017-Aug-19 02:00N 58°28' E 005°10'816.3
2017-Aug-19 01:31N 58°36' E 005°12'816.0
2017-Aug-19 01:00N 58°44' E 005°13'815.8
2017-Aug-19 00:31N 58°52' E 005°16'816.9
2017-Aug-19 00:01N 59°00' E 005°18'714.7
2017-Aug-18 23:31N 59°07' E 005°23'611.3
2017-Aug-18 23:01N 59°07' E 005°12'814.7
2017-Aug-18 22:30N 59°14' E 005°06'817.2
2017-Aug-18 22:00N 59°22' E 005°06'917.3
2017-Aug-18 21:30N 59°31' E 005°12'816.6
2017-Aug-18 21:00N 59°38' E 005°18'917.4
2017-Aug-18 20:30N 59°45' E 005°30'917.9
2017-Aug-18 20:00N 59°52' E 005°41'917.8
2017-Aug-18 19:29N 59°59' E 005°52'918.0
2017-Aug-18 19:00N 60°05' E 006°04'816.0
2017-Aug-18 18:30N 60°13' E 006°07'816.9
2017-Aug-18 18:00N 60°20' E 006°17'917.5
2017-Aug-18 17:30N 60°26' E 006°30'815.1
2017-Aug-18 17:00N 60°27' E 006°46'815.8
2017-Aug-18 16:30N 60°29' E 007°01'1 2.9
2017-Aug-18 16:00N 60°28' E 007°03'0 0.0
2017-Aug-18 15:30N 60°28' E 007°03'0 0.0
2017-Aug-18 14:58N 60°28' E 007°03'0 0.0
2017-Aug-18 14:30N 60°28' E 007°03'0 0.0
2017-Aug-18 13:23N 60°28' E 007°03'0 0.1
2017-Aug-18 12:58N 60°28' E 007°03'0 0.0
2017-Aug-18 12:28N 60°28' E 007°03'0 0.1
2017-Aug-18 11:53N 60°28' E 007°03'0 0.1
2017-Aug-18 11:24N 60°28' E 007°03'0 0.0
2017-Aug-18 11:00N 60°28' E 007°03'0 0.1
2017-Aug-18 10:24N 60°28' E 007°03'0 0.3
2017-Aug-18 09:58N 60°28' E 007°04'0 0.2
2017-Aug-18 09:27N 60°28' E 007°03'0 0.1
2017-Aug-18 08:58N 60°28' E 007°04'0 0.0
2017-Aug-18 08:30N 60°28' E 007°04'0 0.0
2017-Aug-18 07:58N 60°28' E 007°04'0 0.1
2017-Aug-18 06:44N 60°28' E 007°03'0 0.1
2017-Aug-18 06:15N 60°28' E 007°03'0 1.0
2017-Aug-18 06:00N 60°29' E 007°03'4 7.9
2017-Aug-18 05:30N 60°29' E 006°55'611.0
2017-Aug-18 05:00N 60°26' E 006°45'611.4
2017-Aug-18 04:30N 60°27' E 006°34'611.5
2017-Aug-18 04:00N 60°23' E 006°24'713.7
2017-Aug-18 03:30N 60°18' E 006°14'713.2
2017-Aug-18 03:00N 60°13' E 006°06'612.7
2017-Aug-18 02:30N 60°07' E 006°05'613.1
2017-Aug-18 02:00N 60°02' E 005°57'713.2
2017-Aug-18 01:29N 59°57' E 005°48'613.0
2017-Aug-18 01:01N 59°52' E 005°41'4 8.7
2017-Aug-18 00:30N 59°50' E 005°33'612.4
2017-Aug-18 00:00N 59°56' E 005°29'612.7
2017-Aug-17 23:30N 59°60' E 005°20'612.9
2017-Aug-17 23:00N 60°06' E 005°18'611.6
2017-Aug-17 22:30N 60°11' E 005°11'713.8
2017-Aug-17 22:00N 60°09' E 004°57'713.0
2017-Aug-17 21:30N 60°13' E 004°48'612.9
2017-Aug-17 21:00N 60°19' E 004°43'712.8
2017-Aug-17 20:30N 60°25' E 004°39'713.3
2017-Aug-17 20:00N 60°32' E 004°35'1319.0
2017-Aug-17 19:18N 60°45' E 004°42'0 0.2
2017-Aug-17 18:59N 60°45' E 004°42'2 4.5
2017-Aug-17 18:30N 60°43' E 004°46'612.7
2017-Aug-17 18:00N 60°38' E 004°52'613.1
2017-Aug-17 17:30N 60°32' E 004°57'713.3
2017-Aug-17 17:00N 60°26' E 005°02'610.8
2017-Aug-17 16:30N 60°24' E 005°12'3 6.5
2017-Aug-17 16:00N 60°24' E 005°19'0 0.0
2017-Aug-17 15:30N 60°24' E 005°19'0 0.0
2017-Aug-17 15:00N 60°24' E 005°19'0 0.0
2017-Aug-17 14:30N 60°24' E 005°19'0 0.0
2017-Aug-17 14:00N 60°24' E 005°19'0 0.0
2017-Aug-17 13:30N 60°24' E 005°19'0 0.0
2017-Aug-17 13:00N 60°24' E 005°19'0 0.0
2017-Aug-17 12:30N 60°24' E 005°19'0 0.0
2017-Aug-17 12:00N 60°24' E 005°19'0 0.0
2017-Aug-17 11:30N 60°24' E 005°19'0 0.0
2017-Aug-17 11:00N 60°24' E 005°19'0 0.0
2017-Aug-17 10:30N 60°24' E 005°19'0 0.0
2017-Aug-17 10:00N 60°24' E 005°19'0 0.0
2017-Aug-17 09:30N 60°24' E 005°19'0 0.0
2017-Aug-17 09:00N 60°24' E 005°19'0 0.0
2017-Aug-17 08:30N 60°24' E 005°19'0 0.0
2017-Aug-17 08:00N 60°24' E 005°19'0 0.0
2017-Aug-17 07:30N 60°24' E 005°19'0 0.0
2017-Aug-17 07:00N 60°24' E 005°19'0 0.0
2017-Aug-17 06:30N 60°24' E 005°19'0 0.0
2017-Aug-17 06:00N 60°24' E 005°19'0 0.0
2017-Aug-17 05:30N 60°24' E 005°19'2 3.4
2017-Aug-17 05:01N 60°24' E 005°15'4 8.6
2017-Aug-17 04:30N 60°24' E 005°06'5 9.6
2017-Aug-17 04:00N 60°28' E 005°00'611.8
2017-Aug-17 03:30N 60°33' E 004°55'612.4
2017-Aug-17 03:00N 60°39' E 004°51'611.7
2017-Aug-17 02:30N 60°44' E 004°44'612.0
2017-Aug-17 02:00N 60°46' E 004°32'510.7
2017-Aug-17 01:30N 60°51' E 004°26'611.1
2017-Aug-17 01:01N 60°55' E 004°20'5911.0
2017-Aug-16 19:38N 61°54' E 004°25'211.8
2017-Aug-16 19:31N 61°56' E 004°27'611.7
2017-Aug-16 19:01N 62°01' E 004°34'612.4
2017-Aug-16 18:30N 62°06' E 004°42'612.0
2017-Aug-16 18:01N 62°11' E 004°49'611.7
2017-Aug-16 17:31N 62°15' E 004°56'612.5
2017-Aug-16 17:01N 62°20' E 005°04'612.2
2017-Aug-16 16:30N 62°24' E 005°15'612.4
2017-Aug-16 16:00N 62°27' E 005°26'612.4
2017-Aug-16 15:30N 62°30' E 005°38'611.7
2017-Aug-16 14:59N 62°28' E 005°50'611.7
2017-Aug-16 14:30N 62°27' E 006°02'3 7.0
2017-Aug-16 14:00N 62°28' E 006°09'0 0.5
2017-Aug-16 13:29N 62°28' E 006°09'0 0.0
2017-Aug-16 12:59N 62°28' E 006°09'0 0.0
2017-Aug-16 12:29N 62°28' E 006°09'0 0.0
2017-Aug-16 11:59N 62°28' E 006°09'0 0.0
2017-Aug-16 11:29N 62°28' E 006°09'0 0.0
2017-Aug-16 10:59N 62°28' E 006°09'0 0.0
2017-Aug-16 10:29N 62°28' E 006°09'0 0.0
2017-Aug-16 09:59N 62°28' E 006°09'0 0.0
2017-Aug-16 09:29N 62°28' E 006°09'0 0.0
2017-Aug-16 08:59N 62°28' E 006°09'0 0.0
2017-Aug-16 08:29N 62°28' E 006°09'0 0.0
2017-Aug-16 07:59N 62°28' E 006°09'0 0.0
2017-Aug-16 07:29N 62°28' E 006°09'0 0.0
2017-Aug-16 06:59N 62°28' E 006°09'0 0.0
2017-Aug-16 06:29N 62°28' E 006°09'0 0.0
2017-Aug-16 05:59N 62°28' E 006°09'0 0.0
2017-Aug-16 05:29N 62°28' E 006°09'0 0.0
2017-Aug-16 05:00N 62°28' E 006°09'1 1.3
2017-Aug-16 04:30N 62°28' E 006°10'5 9.5
2017-Aug-16 04:00N 62°27' E 005°60'612.0
2017-Aug-16 03:30N 62°29' E 005°48'714.1
2017-Aug-16 02:59N 62°31' E 005°33'714.6
2017-Aug-16 02:30N 62°31' E 005°17'12714.9
2017-Aug-15 18:00N 62°36' E 000°42'2512.4 210 / 401001.2 2.2 13.412.313.9
2017-Aug-15 16:00N 62°36' W 000°12'5814.5 140 / 301001.9 2.2 13.613.414.0
2017-Aug-15 12:00N 62°36' W 002°18'   170 / 121000.7 2.2 12.612.413.0
Track history (hours):
 
Tides and Currents Weather Stations Pressure Air Temp Water Temp Dewpoint Dewpoint Depression Visibility Wind Speed Wind Dir Waves Ship Positions

Rotterdam

Operator: Holland America Line

Last reported at 2017-Aug-22 21:30 UTC. Time now 2017-Aug-22 22:30 UTC.
Position N 52°35' W 005°39'.

Length 228 m; beam 29 m.

Type: Ship. MMSI: 24616700.

Date/timePositionNaut miles runAvg speedWind from/ knotsBaromVisibWave heightAir tempDewpointWater temp
2017-Aug-22 21:30N 52°35' W 005°39'1019.7
2017-Aug-22 21:00N 52°25' W 005°41'1120.0
2017-Aug-22 20:27N 52°14' W 005°42'2820.8
2017-Aug-22 19:05N 51°46' W 005°49'620.0
2017-Aug-22 18:48N 51°41' W 005°52'5919.6
2017-Aug-22 15:47N 50°42' W 005°51'621.8
2017-Aug-22 15:30N 50°36' W 005°50'2122.0
2017-Aug-22 14:34N 50°15' W 005°52'423.1
2017-Aug-22 14:24N 50°11' W 005°52'1123.1
2017-Aug-22 13:56N 50°00' W 005°53'2920.0
2017-Aug-22 12:29N 49°51' W 005°10'1222.1
2017-Aug-22 11:57N 49°50' W 004°52'1022.5
2017-Aug-22 11:31N 49°51' W 004°37'1622.5
2017-Aug-22 10:49N 49°53' W 004°13'722.3
2017-Aug-22 10:30N 49°53' W 004°02'1121.6
2017-Aug-22 10:00N 49°55' W 003°46'1121.1
2017-Aug-22 09:30N 49°56' W 003°30'1020.5
2017-Aug-22 09:00N 49°58' W 003°14'1019.7
2017-Aug-22 08:30N 50°00' W 002°59'1019.1
2017-Aug-22 08:00N 50°03' W 002°45'1018.5
2017-Aug-22 07:28N 50°05' W 002°30'818.3
2017-Aug-22 07:00N 50°07' W 002°17'918.4
2017-Aug-22 06:30N 50°10' W 002°03'1019.1
2017-Aug-22 06:00N 50°12' W 001°48'1020.0
2017-Aug-22 05:31N 50°14' W 001°33'1121.2
2017-Aug-22 05:01N 50°17' W 001°17'1122.5
2017-Aug-22 04:30N 50°20' W 001°00'1723.4
2017-Aug-22 03:48N 50°25' W 000°35'823.3
2017-Aug-22 03:27N 50°27' W 000°23'1022.9
2017-Aug-22 03:00N 50°30' W 000°07'1122.7
2017-Aug-22 02:30N 50°33' E 000°09'1122.4
2017-Aug-22 02:00N 50°37' E 000°26'1121.4
2017-Aug-22 01:30N 50°41' E 000°42'1020.8
2017-Aug-22 01:00N 50°47' E 000°55'1419.5
2017-Aug-22 00:19N 50°56' E 001°12'618.3
2017-Aug-22 00:00N 50°59' E 001°18'815.0
2017-Aug-21 23:30N 51°04' E 001°28'815.1
2017-Aug-21 23:00N 51°08' E 001°37'815.7
2017-Aug-21 22:30N 51°14' E 001°47'917.1
2017-Aug-21 22:00N 51°21' E 001°53'918.7
2017-Aug-21 21:30N 51°29' E 002°01'916.7
2017-Aug-21 20:58N 51°36' E 002°11'6617.7
2017-Aug-21 17:15N 52°04' E 003°47'2 9.7
2017-Aug-21 17:00N 52°04' E 003°50'612.4
2017-Aug-21 16:30N 52°01' E 003°59'713.4
2017-Aug-21 16:00N 51°58' E 004°09'511.0
2017-Aug-21 15:31N 51°54' E 004°16'831.1
2017-Aug-21 15:15N 51°54' E 004°29'416.4
2017-Aug-21 15:01N 51°54' E 004°23'4329.8
2017-Aug-21 15:00N 51°54' E 004°29'0 0.6
2017-Aug-21 14:31N 51°54' E 004°29'023.4
2017-Aug-21 14:30N 51°54' E 004°29'0 0.0
2017-Aug-21 14:00N 51°54' E 004°29'0 7.3
2017-Aug-21 14:00N 51°54' E 004°29'0 0.0
2017-Aug-21 13:30N 51°54' E 004°29'0 0.2
2017-Aug-21 13:30N 51°54' E 004°29'0 0.0
2017-Aug-21 13:00N 51°54' E 004°29'0 0.1
2017-Aug-21 13:00N 51°54' E 004°29'0 0.0
2017-Aug-21 12:30N 51°54' E 004°29'0 0.4
2017-Aug-21 12:30N 51°54' E 004°29'0 0.0
2017-Aug-21 12:00N 51°54' E 004°29'0 0.3
2017-Aug-21 12:00N 51°54' E 004°29'0 0.0
2017-Aug-21 11:30N 51°54' E 004°29'0 0.8
2017-Aug-21 11:30N 51°54' E 004°29'0 0.0
2017-Aug-21 11:00N 51°54' E 004°29'0 0.1
2017-Aug-21 11:00N 51°54' E 004°29'0 0.0
2017-Aug-21 10:30N 51°54' E 004°29'0 0.2
2017-Aug-21 10:30N 51°54' E 004°29'0 0.0
2017-Aug-21 10:00N 51°54' E 004°29'0 1.5
2017-Aug-21 10:00N 51°54' E 004°29'0 0.0
2017-Aug-21 09:30N 51°54' E 004°29'0 0.1
2017-Aug-21 09:30N 51°54' E 004°29'0 0.0
2017-Aug-21 09:00N 51°54' E 004°29'0 0.1
2017-Aug-21 09:00N 51°54' E 004°29'0 0.0
2017-Aug-21 08:30N 51°54' E 004°29'0 2.4
2017-Aug-21 08:30N 51°54' E 004°29'0 0.1
2017-Aug-21 08:00N 51°54' E 004°29'0 0.2
2017-Aug-21 08:00N 51°54' E 004°29'0 0.0
2017-Aug-21 07:30N 51°54' E 004°29'0 0.1
2017-Aug-21 07:30N 51°54' E 004°29'0 0.0
2017-Aug-21 07:00N 51°54' E 004°29'0 0.7
2017-Aug-21 07:00N 51°54' E 004°29'0 0.0
2017-Aug-21 06:30N 51°54' E 004°29'0 0.0
2017-Aug-21 06:30N 51°54' E 004°29'0 0.0
2017-Aug-21 06:00N 51°54' E 004°29'0 0.1
2017-Aug-21 06:00N 51°54' E 004°29'0 0.0
2017-Aug-21 05:30N 51°54' E 004°29'0 0.2
2017-Aug-21 05:29N 51°54' E 004°29'0 0.0
2017-Aug-21 05:00N 51°54' E 004°29'0 0.1
2017-Aug-21 05:00N 51°54' E 004°29'0 0.0
2017-Aug-21 04:30N 51°54' E 004°29'0 0.6
2017-Aug-21 04:30N 51°54' E 004°29'0 0.0
2017-Aug-21 04:00N 51°54' E 004°29'0 0.7
2017-Aug-21 04:00N 51°54' E 004°29'0 0.0
2017-Aug-21 03:30N 51°54' E 004°29'0 0.0
2017-Aug-21 03:00N 51°54' E 004°29'0 0.1
2017-Aug-21 02:59N 51°54' E 004°29'0 0.0
2017-Aug-21 02:30N 51°54' E 004°29'0 0.0
2017-Aug-21 02:30N 51°54' E 004°29'0 0.0
2017-Aug-21 02:00N 51°54' E 004°29'0 0.0
2017-Aug-21 02:00N 51°54' E 004°29'0 0.0
2017-Aug-21 01:30N 51°54' E 004°29'0 0.0
2017-Aug-21 01:30N 51°54' E 004°29'0 0.1
2017-Aug-21 01:00N 51°54' E 004°29'0 2.8
2017-Aug-21 01:00N 51°54' E 004°29'0 0.1
2017-Aug-21 00:30N 51°54' E 004°29'0 0.0
2017-Aug-21 00:30N 51°54' E 004°29'0 0.0
2017-Aug-21 00:00N 51°54' E 004°29'0 0.2
2017-Aug-21 00:00N 51°54' E 004°29'0 0.0
2017-Aug-20 23:30N 51°54' E 004°29'0 0.8
2017-Aug-20 23:30N 51°54' E 004°29'0 0.0
2017-Aug-20 23:00N 51°54' E 004°29'0 0.7
2017-Aug-20 23:00N 51°54' E 004°29'0 0.0
2017-Aug-20 22:30N 51°54' E 004°29'0 0.8
2017-Aug-20 22:30N 51°54' E 004°29'0 0.1
2017-Aug-20 22:00N 51°54' E 004°29'0 4.0
2017-Aug-20 22:00N 51°54' E 004°29'0 0.0
2017-Aug-20 21:30N 51°54' E 004°29'0 1.0
2017-Aug-20 21:30N 51°54' E 004°29'0 0.0
2017-Aug-20 21:00N 51°54' E 004°29'0 0.1
2017-Aug-20 21:00N 51°54' E 004°29'0 0.0
2017-Aug-20 20:30N 51°54' E 004°29'0 0.7
2017-Aug-20 20:30N 51°54' E 004°29'0 0.0
2017-Aug-20 20:00N 51°54' E 004°29'0 0.1
2017-Aug-20 20:00N 51°54' E 004°29'0 0.0
2017-Aug-20 19:30N 51°54' E 004°29'0 0.2
2017-Aug-20 19:30N 51°54' E 004°29'0 0.0
2017-Aug-20 19:00N 51°54' E 004°29'0 0.1
2017-Aug-20 19:00N 51°54' E 004°29'0 0.0
2017-Aug-20 18:30N 51°54' E 004°29'0 0.1
2017-Aug-20 18:30N 51°54' E 004°29'0 0.0
2017-Aug-20 18:00N 51°54' E 004°29'0 0.2
2017-Aug-20 18:00N 51°54' E 004°29'0 0.0
2017-Aug-20 17:30N 51°54' E 004°29'0 0.0
2017-Aug-20 17:30N 51°54' E 004°29'0 0.0
2017-Aug-20 17:00N 51°54' E 004°29'0 0.2
2017-Aug-20 17:00N 51°54' E 004°29'0 0.0
2017-Aug-20 16:30N 51°54' E 004°29'0 0.1
2017-Aug-20 16:29N 51°54' E 004°29'0 0.0
2017-Aug-20 16:00N 51°54' E 004°29'0 0.2
2017-Aug-20 16:00N 51°54' E 004°29'0 0.0
2017-Aug-20 15:30N 51°54' E 004°29'0 0.4
2017-Aug-20 15:30N 51°54' E 004°29'0 0.0
2017-Aug-20 15:00N 51°54' E 004°29'0 0.0
2017-Aug-20 15:00N 51°54' E 004°29'0 0.0
2017-Aug-20 14:30N 51°54' E 004°29'0 0.1
2017-Aug-20 14:30N 51°54' E 004°29'0 0.0
2017-Aug-20 14:00N 51°54' E 004°29'0 0.2
2017-Aug-20 14:00N 51°54' E 004°29'0 0.0
2017-Aug-20 13:30N 51°54' E 004°29'0 0.0
2017-Aug-20 13:30N 51°54' E 004°29'0 0.0
2017-Aug-20 13:00N 51°54' E 004°29'0 0.7
2017-Aug-20 13:00N 51°54' E 004°29'0 0.1
2017-Aug-20 12:30N 51°54' E 004°29'0 2.8
2017-Aug-20 12:30N 51°54' E 004°29'0 0.0
2017-Aug-20 12:00N 51°54' E 004°29'0 0.5
2017-Aug-20 12:00N 51°54' E 004°29'0 0.0
2017-Aug-20 11:30N 51°54' E 004°29'0 0.2
2017-Aug-20 11:30N 51°54' E 004°29'0 0.0
2017-Aug-20 11:00N 51°54' E 004°29'0 0.2
2017-Aug-20 11:00N 51°54' E 004°29'0 0.0
2017-Aug-20 10:30N 51°54' E 004°29'0 0.7
2017-Aug-20 10:30N 51°54' E 004°29'0 0.0
2017-Aug-20 10:00N 51°54' E 004°29'0 0.4
2017-Aug-20 10:00N 51°54' E 004°29'0 0.0
2017-Aug-20 09:30N 51°54' E 004°29'0 0.2
2017-Aug-20 09:30N 51°54' E 004°29'0 0.0
2017-Aug-20 09:00N 51°54' E 004°29'0 0.1
2017-Aug-20 09:00N 51°54' E 004°29'0 0.0
2017-Aug-20 08:30N 51°54' E 004°29'0 3.0
2017-Aug-20 08:30N 51°54' E 004°29'0 0.0
2017-Aug-20 08:00N 51°54' E 004°29'0 0.0
2017-Aug-20 08:00N 51°54' E 004°29'0 0.0
2017-Aug-20 07:30N 51°54' E 004°29'0 0.0
2017-Aug-20 07:30N 51°54' E 004°29'0 0.0
2017-Aug-20 07:00N 51°54' E 004°29'0 0.2
2017-Aug-20 07:00N 51°54' E 004°29'0 0.0
2017-Aug-20 06:30N 51°54' E 004°29'0 0.0
2017-Aug-20 06:00N 51°54' E 004°29'0 0.0
2017-Aug-20 05:30N 51°54' E 004°29'0 0.0
2017-Aug-20 05:00N 51°54' E 004°29'0 0.2
2017-Aug-20 04:30N 51°54' E 004°29'2 4.5
2017-Aug-20 04:01N 51°54' E 004°25'4 7.5
2017-Aug-20 03:31N 51°54' E 004°19'510.7
2017-Aug-20 03:00N 51°56' E 004°12'612.7
2017-Aug-20 02:31N 51°59' E 004°03'815.6
2017-Aug-20 02:01N 52°01' E 003°51'611.2
2017-Aug-20 01:31N 52°06' E 003°46'816.6
2017-Aug-20 01:01N 52°15' E 003°46'816.2
2017-Aug-20 00:30N 52°23' E 003°48'815.9
2017-Aug-20 00:00N 52°30' E 003°51'815.6
2017-Aug-19 23:30N 52°38' E 003°53'815.3
2017-Aug-19 23:01N 52°45' E 003°56'816.2
2017-Aug-19 22:30N 52°54' E 003°59'815.9
2017-Aug-19 22:00N 53°00' E 004°06'916.9
2017-Aug-19 21:30N 53°06' E 004°17'6518.7
2017-Aug-19 18:00N 54°06' E 005°00'6616.0 270 / 251011.910.8 16.5 9.219.0
2017-Aug-19 13:54N 55°10' E 005°22'716.8
2017-Aug-19 13:29N 55°17' E 005°25'1912.8
2017-Aug-19 12:00N 55°36' E 005°30'16017.3 250 / 341004.1 5.4 15.510.718.0
2017-Aug-19 02:46N 58°16' E 005°09'416.9
2017-Aug-19 02:30N 58°20' E 005°09'816.6
2017-Aug-19 02:00N 58°28' E 005°10'816.3
2017-Aug-19 01:31N 58°36' E 005°12'816.0
2017-Aug-19 01:00N 58°44' E 005°13'815.8
2017-Aug-19 00:31N 58°52' E 005°16'816.9
2017-Aug-19 00:01N 59°00' E 005°18'714.7
2017-Aug-18 23:31N 59°07' E 005°23'611.3
2017-Aug-18 23:01N 59°07' E 005°12'814.7
2017-Aug-18 22:30N 59°14' E 005°06'817.2
2017-Aug-18 22:00N 59°22' E 005°06'917.3
2017-Aug-18 21:30N 59°31' E 005°12'816.6
2017-Aug-18 21:00N 59°38' E 005°18'917.4
2017-Aug-18 20:30N 59°45' E 005°30'917.9
2017-Aug-18 20:00N 59°52' E 005°41'917.8
2017-Aug-18 19:29N 59°59' E 005°52'918.0
2017-Aug-18 19:00N 60°05' E 006°04'816.0
2017-Aug-18 18:30N 60°13' E 006°07'816.9
2017-Aug-18 18:00N 60°20' E 006°17'917.5
2017-Aug-18 17:30N 60°26' E 006°30'815.1
2017-Aug-18 17:00N 60°27' E 006°46'815.8
2017-Aug-18 16:30N 60°29' E 007°01'1 2.9
2017-Aug-18 16:00N 60°28' E 007°03'0 0.0
2017-Aug-18 15:30N 60°28' E 007°03'0 0.0
2017-Aug-18 14:58N 60°28' E 007°03'0 0.0
2017-Aug-18 14:30N 60°28' E 007°03'0 0.0
2017-Aug-18 13:23N 60°28' E 007°03'0 0.1
2017-Aug-18 12:58N 60°28' E 007°03'0 0.0
2017-Aug-18 12:28N 60°28' E 007°03'0 0.1
2017-Aug-18 11:53N 60°28' E 007°03'0 0.1
2017-Aug-18 11:24N 60°28' E 007°03'0 0.0
2017-Aug-18 11:00N 60°28' E 007°03'0 0.1
2017-Aug-18 10:24N 60°28' E 007°03'0 0.3
2017-Aug-18 09:58N 60°28' E 007°04'0 0.2
2017-Aug-18 09:27N 60°28' E 007°03'0 0.1
2017-Aug-18 08:58N 60°28' E 007°04'0 0.0
2017-Aug-18 08:30N 60°28' E 007°04'0 0.0
2017-Aug-18 07:58N 60°28' E 007°04'0 0.1
2017-Aug-18 06:44N 60°28' E 007°03'0 0.1
2017-Aug-18 06:15N 60°28' E 007°03'0 1.0
2017-Aug-18 06:00N 60°29' E 007°03'4 7.9
2017-Aug-18 05:30N 60°29' E 006°55'611.0
2017-Aug-18 05:00N 60°26' E 006°45'611.4
2017-Aug-18 04:30N 60°27' E 006°34'611.5
2017-Aug-18 04:00N 60°23' E 006°24'713.7
2017-Aug-18 03:30N 60°18' E 006°14'713.2
2017-Aug-18 03:00N 60°13' E 006°06'612.7
2017-Aug-18 02:30N 60°07' E 006°05'613.1
2017-Aug-18 02:00N 60°02' E 005°57'713.2
2017-Aug-18 01:29N 59°57' E 005°48'613.0
2017-Aug-18 01:01N 59°52' E 005°41'4 8.7
2017-Aug-18 00:30N 59°50' E 005°33'612.4
2017-Aug-18 00:00N 59°56' E 005°29'612.7
2017-Aug-17 23:30N 59°60' E 005°20'612.9
2017-Aug-17 23:00N 60°06' E 005°18'611.6
2017-Aug-17 22:30N 60°11' E 005°11'713.8
2017-Aug-17 22:00N 60°09' E 004°57'713.0
2017-Aug-17 21:30N 60°13' E 004°48'612.9
2017-Aug-17 21:00N 60°19' E 004°43'712.8
2017-Aug-17 20:30N 60°25' E 004°39'713.3
2017-Aug-17 20:00N 60°32' E 004°35'1319.0
2017-Aug-17 19:18N 60°45' E 004°42'0 0.2
2017-Aug-17 18:59N 60°45' E 004°42'2 4.5
2017-Aug-17 18:30N 60°43' E 004°46'612.7
2017-Aug-17 18:00N 60°38' E 004°52'613.1
2017-Aug-17 17:30N 60°32' E 004°57'713.3
2017-Aug-17 17:00N 60°26' E 005°02'610.8
2017-Aug-17 16:30N 60°24' E 005°12'3 6.5
2017-Aug-17 16:00N 60°24' E 005°19'0 0.0
2017-Aug-17 15:30N 60°24' E 005°19'0 0.0
2017-Aug-17 15:00N 60°24' E 005°19'0 0.0
2017-Aug-17 14:30N 60°24' E 005°19'0 0.0
2017-Aug-17 14:00N 60°24' E 005°19'0 0.0
2017-Aug-17 13:30N 60°24' E 005°19'0 0.0
2017-Aug-17 13:00N 60°24' E 005°19'0 0.0
2017-Aug-17 12:30N 60°24' E 005°19'0 0.0
2017-Aug-17 12:00N 60°24' E 005°19'0 0.0
2017-Aug-17 11:30N 60°24' E 005°19'0 0.0
2017-Aug-17 11:00N 60°24' E 005°19'0 0.0
2017-Aug-17 10:30N 60°24' E 005°19'0 0.0
2017-Aug-17 10:00N 60°24' E 005°19'0 0.0
2017-Aug-17 09:30N 60°24' E 005°19'0 0.0
2017-Aug-17 09:00N 60°24' E 005°19'0 0.0
2017-Aug-17 08:30N 60°24' E 005°19'0 0.0
2017-Aug-17 08:00N 60°24' E 005°19'0 0.0
2017-Aug-17 07:30N 60°24' E 005°19'0 0.0
2017-Aug-17 07:00N 60°24' E 005°19'0 0.0
2017-Aug-17 06:30N 60°24' E 005°19'0 0.0
2017-Aug-17 06:00N 60°24' E 005°19'0 0.0
2017-Aug-17 05:30N 60°24' E 005°19'2 3.4
2017-Aug-17 05:01N 60°24' E 005°15'4 8.6
2017-Aug-17 04:30N 60°24' E 005°06'5 9.6
2017-Aug-17 04:00N 60°28' E 005°00'611.8
2017-Aug-17 03:30N 60°33' E 004°55'612.4
2017-Aug-17 03:00N 60°39' E 004°51'611.7
2017-Aug-17 02:30N 60°44' E 004°44'612.0
2017-Aug-17 02:00N 60°46' E 004°32'510.7
2017-Aug-17 01:30N 60°51' E 004°26'611.1
2017-Aug-17 01:01N 60°55' E 004°20'5911.0
2017-Aug-16 19:38N 61°54' E 004°25'211.8
2017-Aug-16 19:31N 61°56' E 004°27'611.7
2017-Aug-16 19:01N 62°01' E 004°34'612.4
2017-Aug-16 18:30N 62°06' E 004°42'612.0
2017-Aug-16 18:01N 62°11' E 004°49'611.7
2017-Aug-16 17:31N 62°15' E 004°56'612.5
2017-Aug-16 17:01N 62°20' E 005°04'612.2
2017-Aug-16 16:30N 62°24' E 005°15'612.4
2017-Aug-16 16:00N 62°27' E 005°26'612.4
2017-Aug-16 15:30N 62°30' E 005°38'611.7
2017-Aug-16 14:59N 62°28' E 005°50'611.7
2017-Aug-16 14:30N 62°27' E 006°02'3 7.0
2017-Aug-16 14:00N 62°28' E 006°09'0 0.5
2017-Aug-16 13:29N 62°28' E 006°09'0 0.0
2017-Aug-16 12:59N 62°28' E 006°09'0 0.0
2017-Aug-16 12:29N 62°28' E 006°09'0 0.0
2017-Aug-16 11:59N 62°28' E 006°09'0 0.0
2017-Aug-16 11:29N 62°28' E 006°09'0 0.0
2017-Aug-16 10:59N 62°28' E 006°09'0 0.0
2017-Aug-16 10:29N 62°28' E 006°09'0 0.0
2017-Aug-16 09:59N 62°28' E 006°09'0 0.0
2017-Aug-16 09:29N 62°28' E 006°09'0 0.0
2017-Aug-16 08:59N 62°28' E 006°09'0 0.0
2017-Aug-16 08:29N 62°28' E 006°09'0 0.0
2017-Aug-16 07:59N 62°28' E 006°09'0 0.0
2017-Aug-16 07:29N 62°28' E 006°09'0 0.0
2017-Aug-16 06:59N 62°28' E 006°09'0 0.0
2017-Aug-16 06:29N 62°28' E 006°09'0 0.0
2017-Aug-16 05:59N 62°28' E 006°09'0 0.0
2017-Aug-16 05:29N 62°28' E 006°09'0 0.0
2017-Aug-16 05:00N 62°28' E 006°09'1 1.3
2017-Aug-16 04:30N 62°28' E 006°10'5 9.5
2017-Aug-16 04:00N 62°27' E 005°60'612.0
2017-Aug-16 03:30N 62°29' E 005°48'714.1
2017-Aug-16 02:59N 62°31' E 005°33'714.6
2017-Aug-16 02:30N 62°31' E 005°17'12714.9
2017-Aug-15 18:00N 62°36' E 000°42'2512.4 210 / 401001.2 2.2 13.412.313.9
2017-Aug-15 16:00N 62°36' W 000°12'5814.5 140 / 301001.9 2.2 13.613.414.0
2017-Aug-15 12:00N 62°36' W 002°18'   170 / 121000.7 2.2 12.612.413.0

Dump ship's entire track history